Terminal Aerodrome Forecast
Issued by NWS Lake Charles, LA

Current Version | Previous Version | Text Only | Print | Product List | Glossary On
Versions: 1 2 3 4 5 6 7 8 9 10 11 12 13 14 15
000
FTUS44 KLCH 231800 AAA
TAFAEX
TAF AMD
KAEX 231856Z 2319/2418 36005KT P6SM VCTS SCT030CB BKN050
      TEMPO 2319/2320 VRB15G25KT 4SM TSRA BR BKN020CB
     FM240100 00000KT P6SM SCT040 BKN100=

USA.gov is the U.S. government's official web portal to all federal, state and local government web resources and services.